sensor_id;sensor_type;location;lat;lon;timestamp;P1;durP1;ratioP1;P2;durP2;ratioP2
24151;SDS011;12311;50.866;4.332;2023-06-04T00:01:20;1.15;;;0.95;;
24151;SDS011;12311;50.866;4.332;2023-06-04T00:03:47;0.95;;;0.50;;
24151;SDS011;12311;50.866;4.332;2023-06-04T00:06:12;0.50;;;0.45;;
24151;SDS011;12311;50.866;4.332;2023-06-04T00:08:38;1.35;;;0.70;;
24151;SDS011;12311;50.866;4.332;2023-06-04T00:11:04;0.65;;;0.60;;
24151;SDS011;12311;50.866;4.332;2023-06-04T00:13:30;1.77;;;0.75;;
24151;SDS011;12311;50.866;4.332;2023-06-04T00:15:55;1.33;;;0.80;;
24151;SDS011;12311;50.866;4.332;2023-06-04T00:18:21;1.05;;;0.80;;
24151;SDS011;12311;50.866;4.332;2023-06-04T00:20:47;1.88;;;0.60;;
24151;SDS011;12311;50.866;4.332;2023-06-04T00:23:12;3.55;;;0.60;;
24151;SDS011;12311;50.866;4.332;2023-06-04T00:25:38;1.60;;;0.88;;
24151;SDS011;12311;50.866;4.332;2023-06-04T00:28:04;1.50;;;0.90;;
24151;SDS011;12311;50.866;4.332;2023-06-04T00:30:29;0.85;;;0.60;;
24151;SDS011;12311;50.866;4.332;2023-06-04T00:32:56;1.08;;;0.70;;
24151;SDS011;12311;50.866;4.332;2023-06-04T00:35:21;1.10;;;0.60;;
24151;SDS011;12311;50.866;4.332;2023-06-04T00:37:47;1.13;;;0.95;;
24151;SDS011;12311;50.866;4.332;2023-06-04T00:40:13;1.75;;;0.82;;
24151;SDS011;12311;50.866;4.332;2023-06-04T00:42:39;1.55;;;1.15;;
24151;SDS011;12311;50.866;4.332;2023-06-04T00:45:05;0.65;;;0.60;;
24151;SDS011;12311;50.866;4.332;2023-06-04T00:47:34;1.75;;;0.85;;
24151;SDS011;12311;50.866;4.332;2023-06-04T00:50:00;2.35;;;0.80;;
24151;SDS011;12311;50.866;4.332;2023-06-04T00:52:26;1.90;;;0.82;;
24151;SDS011;12311;50.866;4.332;2023-06-04T00:54:52;1.42;;;1.00;;
24151;SDS011;12311;50.866;4.332;2023-06-04T00:57:20;1.65;;;1.13;;
24151;SDS011;12311;50.866;4.332;2023-06-04T00:59:49;1.58;;;0.90;;
24151;SDS011;12311;50.866;4.332;2023-06-04T01:02:21;1.95;;;0.85;;
24151;SDS011;12311;50.866;4.332;2023-06-04T01:07:26;2.53;;;0.90;;
24151;SDS011;12311;50.866;4.332;2023-06-04T01:09:53;0.73;;;0.73;;
24151;SDS011;12311;50.866;4.332;2023-06-04T01:12:19;1.50;;;0.80;;
24151;SDS011;12311;50.866;4.332;2023-06-04T01:14:45;2.30;;;1.23;;
24151;SDS011;12311;50.866;4.332;2023-06-04T01:17:13;1.52;;;0.70;;
24151;SDS011;12311;50.866;4.332;2023-06-04T01:25:38;1.05;;;0.82;;
24151;SDS011;12311;50.866;4.332;2023-06-04T01:28:05;0.77;;;0.60;;
24151;SDS011;12311;50.866;4.332;2023-06-04T01:30:38;1.90;;;1.00;;
24151;SDS011;12311;50.866;4.332;2023-06-04T01:33:08;1.50;;;0.93;;
24151;SDS011;12311;50.866;4.332;2023-06-04T01:35:38;1.67;;;0.85;;
24151;SDS011;12311;50.866;4.332;2023-06-04T01:38:04;4.18;;;0.85;;
24151;SDS011;12311;50.866;4.332;2023-06-04T01:40:30;5.78;;;0.80;;
24151;SDS011;12311;50.866;4.332;2023-06-04T01:42:57;1.98;;;1.02;;
24151;SDS011;12311;50.866;4.332;2023-06-04T01:45:23;2.22;;;1.02;;
24151;SDS011;12311;50.866;4.332;2023-06-04T01:47:48;1.33;;;0.90;;
24151;SDS011;12311;50.866;4.332;2023-06-04T01:50:14;2.10;;;1.15;;
24151;SDS011;12311;50.866;4.332;2023-06-04T01:52:42;1.90;;;1.02;;
24151;SDS011;12311;50.866;4.332;2023-06-04T01:55:09;2.92;;;1.30;;
24151;SDS011;12311;50.866;4.332;2023-06-04T01:57:38;1.10;;;1.00;;
24151;SDS011;12311;50.866;4.332;2023-06-04T02:00:04;1.23;;;0.90;;
24151;SDS011;12311;50.866;4.332;2023-06-04T02:02:33;2.08;;;1.35;;
24151;SDS011;12311;50.866;4.332;2023-06-04T02:05:00;1.17;;;1.00;;
24151;SDS011;12311;50.866;4.332;2023-06-04T02:07:26;1.52;;;0.93;;
24151;SDS011;12311;50.866;4.332;2023-06-04T02:09:52;1.30;;;0.95;;
24151;SDS011;12311;50.866;4.332;2023-06-04T02:12:18;3.30;;;1.20;;
24151;SDS011;12311;50.866;4.332;2023-06-04T02:14:43;0.93;;;0.77;;
24151;SDS011;12311;50.866;4.332;2023-06-04T02:17:12;1.35;;;0.90;;
24151;SDS011;12311;50.866;4.332;2023-06-04T02:19:41;1.30;;;1.00;;
24151;SDS011;12311;50.866;4.332;2023-06-04T02:22:18;1.90;;;1.23;;
24151;SDS011;12311;50.866;4.332;2023-06-04T02:24:45;1.80;;;1.10;;
24151;SDS011;12311;50.866;4.332;2023-06-04T02:27:11;1.52;;;1.30;;
24151;SDS011;12311;50.866;4.332;2023-06-04T02:29:38;1.70;;;1.00;;
24151;SDS011;12311;50.866;4.332;2023-06-04T02:32:04;1.42;;;0.90;;
24151;SDS011;12311;50.866;4.332;2023-06-04T02:34:30;3.38;;;0.93;;
24151;SDS011;12311;50.866;4.332;2023-06-04T02:36:56;1.60;;;0.88;;
24151;SDS011;12311;50.866;4.332;2023-06-04T02:39:23;2.15;;;0.90;;
24151;SDS011;12311;50.866;4.332;2023-06-04T02:41:49;1.98;;;1.30;;
24151;SDS011;12311;50.866;4.332;2023-06-04T02:44:15;2.90;;;1.10;;
24151;SDS011;12311;50.866;4.332;2023-06-04T02:46:40;3.67;;;1.05;;
24151;SDS011;12311;50.866;4.332;2023-06-04T02:49:06;1.55;;;1.45;;
24151;SDS011;12311;50.866;4.332;2023-06-04T02:51:32;1.33;;;1.02;;
24151;SDS011;12311;50.866;4.332;2023-06-04T02:53:58;1.75;;;1.10;;
24151;SDS011;12311;50.866;4.332;2023-06-04T02:56:23;1.98;;;1.00;;
24151;SDS011;12311;50.866;4.332;2023-06-04T02:58:53;2.00;;;1.33;;
24151;SDS011;12311;50.866;4.332;2023-06-04T03:01:24;2.45;;;1.05;;
24151;SDS011;12311;50.866;4.332;2023-06-04T03:03:51;3.67;;;1.13;;
24151;SDS011;12311;50.866;4.332;2023-06-04T03:06:18;2.80;;;1.40;;
24151;SDS011;12311;50.866;4.332;2023-06-04T03:08:48;2.80;;;1.25;;
24151;SDS011;12311;50.866;4.332;2023-06-04T03:11:18;2.60;;;1.10;;
24151;SDS011;12311;50.866;4.332;2023-06-04T03:13:47;1.85;;;0.80;;
24151;SDS011;12311;50.866;4.332;2023-06-04T03:16:14;1.92;;;1.15;;
24151;SDS011;12311;50.866;4.332;2023-06-04T03:18:40;1.15;;;0.80;;
24151;SDS011;12311;50.866;4.332;2023-06-04T03:21:06;1.17;;;0.95;;
24151;SDS011;12311;50.866;4.332;2023-06-04T03:23:33;1.60;;;0.90;;
24151;SDS011;12311;50.866;4.332;2023-06-04T03:26:00;1.13;;;0.98;;
24151;SDS011;12311;50.866;4.332;2023-06-04T03:28:27;3.28;;;1.58;;
24151;SDS011;12311;50.866;4.332;2023-06-04T03:30:52;3.50;;;1.63;;
24151;SDS011;12311;50.866;4.332;2023-06-04T03:33:18;3.85;;;1.20;;
24151;SDS011;12311;50.866;4.332;2023-06-04T03:35:44;4.00;;;1.00;;
24151;SDS011;12311;50.866;4.332;2023-06-04T03:38:10;2.47;;;1.15;;
24151;SDS011;12311;50.866;4.332;2023-06-04T03:40:36;2.22;;;1.00;;
24151;SDS011;12311;50.866;4.332;2023-06-04T03:43:02;1.85;;;1.10;;
24151;SDS011;12311;50.866;4.332;2023-06-04T03:45:29;2.28;;;1.33;;
24151;SDS011;12311;50.866;4.332;2023-06-04T03:47:55;1.85;;;0.82;;
24151;SDS011;12311;50.866;4.332;2023-06-04T03:50:21;6.60;;;1.27;;
24151;SDS011;12311;50.866;4.332;2023-06-04T03:52:49;3.58;;;1.38;;
24151;SDS011;12311;50.866;4.332;2023-06-04T03:55:15;2.03;;;1.10;;
24151;SDS011;12311;50.866;4.332;2023-06-04T03:57:41;2.38;;;1.40;;
24151;SDS011;12311;50.866;4.332;2023-06-04T04:00:08;1.52;;;1.33;;
24151;SDS011;12311;50.866;4.332;2023-06-04T04:02:38;3.97;;;0.90;;
24151;SDS011;12311;50.866;4.332;2023-06-04T04:05:05;1.90;;;0.80;;
24151;SDS011;12311;50.866;4.332;2023-06-04T04:07:31;1.48;;;1.00;;
24151;SDS011;12311;50.866;4.332;2023-06-04T04:09:56;3.45;;;1.42;;
24151;SDS011;12311;50.866;4.332;2023-06-04T04:12:22;6.05;;;1.00;;
24151;SDS011;12311;50.866;4.332;2023-06-04T04:14:48;4.20;;;1.67;;
24151;SDS011;12311;50.866;4.332;2023-06-04T04:17:14;4.05;;;1.10;;
24151;SDS011;12311;50.866;4.332;2023-06-04T04:19:40;2.30;;;0.90;;
24151;SDS011;12311;50.866;4.332;2023-06-04T04:22:05;2.20;;;1.15;;
24151;SDS011;12311;50.866;4.332;2023-06-04T04:24:31;1.67;;;1.10;;
24151;SDS011;12311;50.866;4.332;2023-06-04T04:26:59;2.47;;;1.35;;
24151;SDS011;12311;50.866;4.332;2023-06-04T04:29:28;1.88;;;0.90;;
24151;SDS011;12311;50.866;4.332;2023-06-04T04:31:57;5.30;;;1.52;;
24151;SDS011;12311;50.866;4.332;2023-06-04T04:34:34;2.92;;;0.98;;
24151;SDS011;12311;50.866;4.332;2023-06-04T04:37:02;2.13;;;1.17;;
24151;SDS011;12311;50.866;4.332;2023-06-04T04:39:28;1.80;;;1.05;;
24151;SDS011;12311;50.866;4.332;2023-06-04T04:41:54;2.50;;;1.35;;
24151;SDS011;12311;50.866;4.332;2023-06-04T04:44:20;1.83;;;1.00;;
24151;SDS011;12311;50.866;4.332;2023-06-04T04:46:47;2.65;;;1.05;;
24151;SDS011;12311;50.866;4.332;2023-06-04T04:49:13;2.85;;;1.13;;
24151;SDS011;12311;50.866;4.332;2023-06-04T04:51:39;1.60;;;0.88;;
24151;SDS011;12311;50.866;4.332;2023-06-04T04:54:05;3.65;;;1.10;;
24151;SDS011;12311;50.866;4.332;2023-06-04T04:56:33;1.67;;;1.10;;
24151;SDS011;12311;50.866;4.332;2023-06-04T04:58:59;9.80;;;1.00;;
24151;SDS011;12311;50.866;4.332;2023-06-04T05:01:25;1.20;;;0.90;;
24151;SDS011;12311;50.866;4.332;2023-06-04T05:03:51;1.08;;;0.88;;
24151;SDS011;12311;50.866;4.332;2023-06-04T05:06:16;5.68;;;1.52;;
24151;SDS011;12311;50.866;4.332;2023-06-04T05:08:42;3.67;;;1.48;;
24151;SDS011;12311;50.866;4.332;2023-06-04T05:11:08;3.17;;;1.27;;
24151;SDS011;12311;50.866;4.332;2023-06-04T05:13:34;1.77;;;1.23;;
24151;SDS011;12311;50.866;4.332;2023-06-04T05:16:00;2.50;;;1.27;;
24151;SDS011;12311;50.866;4.332;2023-06-04T05:18:31;3.25;;;1.20;;
24151;SDS011;12311;50.866;4.332;2023-06-04T05:20:58;3.13;;;1.42;;
24151;SDS011;12311;50.866;4.332;2023-06-04T05:23:25;1.90;;;1.15;;
24151;SDS011;12311;50.866;4.332;2023-06-04T05:25:51;1.85;;;1.23;;
24151;SDS011;12311;50.866;4.332;2023-06-04T05:28:17;2.47;;;1.13;;
24151;SDS011;12311;50.866;4.332;2023-06-04T05:30:43;2.20;;;1.40;;
24151;SDS011;12311;50.866;4.332;2023-06-04T05:33:09;3.72;;;1.25;;
24151;SDS011;12311;50.866;4.332;2023-06-04T05:35:42;2.00;;;1.67;;
24151;SDS011;12311;50.866;4.332;2023-06-04T05:38:11;2.28;;;1.20;;
24151;SDS011;12311;50.866;4.332;2023-06-04T05:40:42;1.30;;;1.20;;
24151;SDS011;12311;50.866;4.332;2023-06-04T05:43:08;2.05;;;1.05;;
24151;SDS011;12311;50.866;4.332;2023-06-04T05:45:34;1.45;;;1.10;;
24151;SDS011;12311;50.866;4.332;2023-06-04T05:48:00;3.28;;;1.13;;
24151;SDS011;12311;50.866;4.332;2023-06-04T05:50:26;1.92;;;1.10;;
24151;SDS011;12311;50.866;4.332;2023-06-04T05:52:52;2.15;;;1.10;;
24151;SDS011;12311;50.866;4.332;2023-06-04T05:55:17;1.52;;;1.10;;
24151;SDS011;12311;50.866;4.332;2023-06-04T05:57:43;3.42;;;1.25;;
24151;SDS011;12311;50.866;4.332;2023-06-04T06:00:09;1.90;;;1.30;;
24151;SDS011;12311;50.866;4.332;2023-06-04T06:02:35;4.07;;;1.08;;
24151;SDS011;12311;50.866;4.332;2023-06-04T06:05:02;2.20;;;1.38;;
24151;SDS011;12311;50.866;4.332;2023-06-04T06:07:28;3.00;;;1.15;;
24151;SDS011;12311;50.866;4.332;2023-06-04T06:09:54;2.25;;;1.30;;
24151;SDS011;12311;50.866;4.332;2023-06-04T06:12:20;3.85;;;1.55;;
24151;SDS011;12311;50.866;4.332;2023-06-04T06:14:46;4.45;;;1.55;;
24151;SDS011;12311;50.866;4.332;2023-06-04T06:17:11;3.08;;;0.98;;
24151;SDS011;12311;50.866;4.332;2023-06-04T06:19:37;1.33;;;0.95;;
24151;SDS011;12311;50.866;4.332;2023-06-04T06:22:03;3.58;;;1.33;;
24151;SDS011;12311;50.866;4.332;2023-06-04T06:24:29;1.95;;;1.33;;
24151;SDS011;12311;50.866;4.332;2023-06-04T06:26:55;7.43;;;1.13;;
24151;SDS011;12311;50.866;4.332;2023-06-04T06:29:21;2.65;;;1.33;;
24151;SDS011;12311;50.866;4.332;2023-06-04T06:31:46;2.05;;;1.42;;
24151;SDS011;12311;50.866;4.332;2023-06-04T06:34:12;2.83;;;1.27;;
24151;SDS011;12311;50.866;4.332;2023-06-04T06:36:38;1.98;;;1.25;;
24151;SDS011;12311;50.866;4.332;2023-06-04T06:39:03;1.50;;;1.00;;
24151;SDS011;12311;50.866;4.332;2023-06-04T06:41:29;3.88;;;1.10;;
24151;SDS011;12311;50.866;4.332;2023-06-04T06:43:56;12.77;;;1.40;;
24151;SDS011;12311;50.866;4.332;2023-06-04T06:46:22;2.22;;;1.10;;
24151;SDS011;12311;50.866;4.332;2023-06-04T06:48:48;2.63;;;1.25;;
24151;SDS011;12311;50.866;4.332;2023-06-04T06:51:14;1.92;;;1.27;;
24151;SDS011;12311;50.866;4.332;2023-06-04T06:53:40;2.05;;;1.52;;
24151;SDS011;12311;50.866;4.332;2023-06-04T06:56:06;3.85;;;1.58;;
24151;SDS011;12311;50.866;4.332;2023-06-04T06:58:32;1.92;;;1.40;;
24151;SDS011;12311;50.866;4.332;2023-06-04T07:00:57;2.03;;;1.08;;
24151;SDS011;12311;50.866;4.332;2023-06-04T07:03:23;1.83;;;1.17;;
24151;SDS011;12311;50.866;4.332;2023-06-04T07:05:49;1.92;;;1.30;;
24151;SDS011;12311;50.866;4.332;2023-06-04T07:08:14;2.88;;;0.90;;
24151;SDS011;12311;50.866;4.332;2023-06-04T07:10:41;1.60;;;1.10;;
24151;SDS011;12311;50.866;4.332;2023-06-04T07:13:06;2.72;;;1.00;;
24151;SDS011;12311;50.866;4.332;2023-06-04T07:15:32;1.55;;;1.10;;
24151;SDS011;12311;50.866;4.332;2023-06-04T07:17:58;1.52;;;1.08;;
24151;SDS011;12311;50.866;4.332;2023-06-04T07:20:23;1.92;;;0.90;;
24151;SDS011;12311;50.866;4.332;2023-06-04T07:22:49;2.35;;;1.10;;
24151;SDS011;12311;50.866;4.332;2023-06-04T07:25:15;1.95;;;1.10;;
24151;SDS011;12311;50.866;4.332;2023-06-04T07:27:41;1.30;;;0.80;;
24151;SDS011;12311;50.866;4.332;2023-06-04T07:30:06;1.63;;;0.90;;
24151;SDS011;12311;50.866;4.332;2023-06-04T07:32:33;2.13;;;1.00;;
24151;SDS011;12311;50.866;4.332;2023-06-04T07:34:58;1.77;;;0.90;;
24151;SDS011;12311;50.866;4.332;2023-06-04T07:37:24;1.10;;;0.77;;
24151;SDS011;12311;50.866;4.332;2023-06-04T07:39:50;1.30;;;1.00;;
24151;SDS011;12311;50.866;4.332;2023-06-04T07:42:16;1.40;;;0.80;;
24151;SDS011;12311;50.866;4.332;2023-06-04T07:44:41;1.05;;;0.95;;
24151;SDS011;12311;50.866;4.332;2023-06-04T07:47:07;1.65;;;0.93;;
24151;SDS011;12311;50.866;4.332;2023-06-04T07:49:33;1.70;;;0.88;;
24151;SDS011;12311;50.866;4.332;2023-06-04T07:51:58;0.93;;;0.60;;
24151;SDS011;12311;50.866;4.332;2023-06-04T07:54:25;2.15;;;1.30;;
24151;SDS011;12311;50.866;4.332;2023-06-04T07:56:51;2.85;;;0.73;;
24151;SDS011;12311;50.866;4.332;2023-06-04T07:59:21;1.65;;;0.90;;
24151;SDS011;12311;50.866;4.332;2023-06-04T08:01:47;1.70;;;0.80;;
24151;SDS011;12311;50.866;4.332;2023-06-04T08:04:14;1.33;;;0.50;;
24151;SDS011;12311;50.866;4.332;2023-06-04T08:06:40;1.58;;;1.10;;
24151;SDS011;12311;50.866;4.332;2023-06-04T08:09:07;2.20;;;1.23;;
24151;SDS011;12311;50.866;4.332;2023-06-04T08:11:35;1.55;;;0.90;;
24151;SDS011;12311;50.866;4.332;2023-06-04T08:14:01;2.58;;;0.70;;
24151;SDS011;12311;50.866;4.332;2023-06-04T08:16:26;1.38;;;0.80;;
24151;SDS011;12311;50.866;4.332;2023-06-04T08:18:52;1.48;;;0.90;;
24151;SDS011;12311;50.866;4.332;2023-06-04T08:21:27;2.92;;;0.95;;
24151;SDS011;12311;50.866;4.332;2023-06-04T08:23:53;2.75;;;0.80;;
24151;SDS011;12311;50.866;4.332;2023-06-04T08:26:20;0.70;;;0.57;;
24151;SDS011;12311;50.866;4.332;2023-06-04T08:28:49;1.15;;;0.60;;
24151;SDS011;12311;50.866;4.332;2023-06-04T08:31:15;0.98;;;0.60;;
24151;SDS011;12311;50.866;4.332;2023-06-04T08:33:42;0.73;;;0.52;;
24151;SDS011;12311;50.866;4.332;2023-06-04T08:36:08;1.80;;;0.75;;
24151;SDS011;12311;50.866;4.332;2023-06-04T08:38:33;2.88;;;0.70;;
24151;SDS011;12311;50.866;4.332;2023-06-04T08:41:02;1.48;;;0.82;;
24151;SDS011;12311;50.866;4.332;2023-06-04T08:43:51;1.63;;;0.47;;
24151;SDS011;12311;50.866;4.332;2023-06-04T08:46:20;2.92;;;0.85;;
24151;SDS011;12311;50.866;4.332;2023-06-04T08:48:47;0.70;;;0.45;;
24151;SDS011;12311;50.866;4.332;2023-06-04T08:51:15;1.13;;;0.60;;
24151;SDS011;12311;50.866;4.332;2023-06-04T08:53:41;1.05;;;0.60;;
24151;SDS011;12311;50.866;4.332;2023-06-04T08:56:07;5.25;;;1.23;;
24151;SDS011;12311;50.866;4.332;2023-06-04T08:58:36;1.00;;;0.73;;
24151;SDS011;12311;50.866;4.332;2023-06-04T09:01:06;0.98;;;0.63;;
24151;SDS011;12311;50.866;4.332;2023-06-04T09:03:33;1.83;;;0.60;;
24151;SDS011;12311;50.866;4.332;2023-06-04T09:06:00;0.95;;;0.52;;
24151;SDS011;12311;50.866;4.332;2023-06-04T09:08:27;0.93;;;0.60;;
24151;SDS011;12311;50.866;4.332;2023-06-04T09:10:59;0.50;;;0.50;;
24151;SDS011;12311;50.866;4.332;2023-06-04T09:13:30;6.85;;;1.00;;
24151;SDS011;12311;50.866;4.332;2023-06-04T09:16:01;0.70;;;0.60;;
24151;SDS011;12311;50.866;4.332;2023-06-04T09:18:28;0.65;;;0.63;;
24151;SDS011;12311;50.866;4.332;2023-06-04T09:21:07;0.85;;;0.63;;
24151;SDS011;12311;50.866;4.332;2023-06-04T09:23:39;1.10;;;0.80;;
24151;SDS011;12311;50.866;4.332;2023-06-04T09:26:10;1.48;;;0.63;;
24151;SDS011;12311;50.866;4.332;2023-06-04T09:28:42;2.60;;;0.75;;
24151;SDS011;12311;50.866;4.332;2023-06-04T09:31:09;2.90;;;0.70;;
24151;SDS011;12311;50.866;4.332;2023-06-04T09:33:56;1.38;;;0.70;;
24151;SDS011;12311;50.866;4.332;2023-06-04T09:36:22;0.45;;;0.40;;
24151;SDS011;12311;50.866;4.332;2023-06-04T09:38:54;2.33;;;0.80;;
24151;SDS011;12311;50.866;4.332;2023-06-04T09:41:20;0.85;;;0.60;;
24151;SDS011;12311;50.866;4.332;2023-06-04T09:43:46;0.77;;;0.65;;
24151;SDS011;12311;50.866;4.332;2023-06-04T09:46:16;0.65;;;0.50;;
24151;SDS011;12311;50.866;4.332;2023-06-04T09:48:42;1.20;;;0.80;;
24151;SDS011;12311;50.866;4.332;2023-06-04T09:51:10;0.75;;;0.57;;
24151;SDS011;12311;50.866;4.332;2023-06-04T09:53:54;1.00;;;0.40;;
24151;SDS011;12311;50.866;4.332;2023-06-04T09:56:23;0.73;;;0.60;;
24151;SDS011;12311;50.866;4.332;2023-06-04T09:58:56;0.77;;;0.55;;
24151;SDS011;12311;50.866;4.332;2023-06-04T10:01:26;2.47;;;0.43;;
24151;SDS011;12311;50.866;4.332;2023-06-04T10:03:52;1.52;;;0.68;;
24151;SDS011;12311;50.866;4.332;2023-06-04T10:06:19;1.70;;;0.55;;
24151;SDS011;12311;50.866;4.332;2023-06-04T10:08:48;3.38;;;0.60;;
24151;SDS011;12311;50.866;4.332;2023-06-04T10:11:17;0.98;;;0.60;;
24151;SDS011;12311;50.866;4.332;2023-06-04T10:13:53;0.60;;;0.60;;
24151;SDS011;12311;50.866;4.332;2023-06-04T10:16:21;0.47;;;0.40;;
24151;SDS011;12311;50.866;4.332;2023-06-04T10:18:48;4.40;;;0.60;;
24151;SDS011;12311;50.866;4.332;2023-06-04T10:21:15;1.17;;;0.68;;
24151;SDS011;12311;50.866;4.332;2023-06-04T10:23:43;1.30;;;0.82;;
24151;SDS011;12311;50.866;4.332;2023-06-04T10:26:10;1.15;;;0.47;;
24151;SDS011;12311;50.866;4.332;2023-06-04T10:28:42;0.95;;;0.63;;
24151;SDS011;12311;50.866;4.332;2023-06-04T10:31:11;2.88;;;0.82;;
24151;SDS011;12311;50.866;4.332;2023-06-04T10:33:37;1.50;;;0.80;;
24151;SDS011;12311;50.866;4.332;2023-06-04T10:39:09;0.70;;;0.60;;
24151;SDS011;12311;50.866;4.332;2023-06-04T10:41:36;0.80;;;0.65;;
24151;SDS011;12311;50.866;4.332;2023-06-04T10:44:02;1.15;;;0.50;;
24151;SDS011;12311;50.866;4.332;2023-06-04T10:46:37;1.48;;;0.70;;
24151;SDS011;12311;50.866;4.332;2023-06-04T10:49:08;1.27;;;0.70;;
24151;SDS011;12311;50.866;4.332;2023-06-04T10:51:36;0.63;;;0.63;;
24151;SDS011;12311;50.866;4.332;2023-06-04T10:54:02;0.80;;;0.50;;
24151;SDS011;12311;50.866;4.332;2023-06-04T10:56:29;1.27;;;0.50;;
24151;SDS011;12311;50.866;4.332;2023-06-04T10:58:57;1.30;;;0.75;;
24151;SDS011;12311;50.866;4.332;2023-06-04T11:01:26;3.97;;;1.02;;
24151;SDS011;12311;50.866;4.332;2023-06-04T11:03:57;2.05;;;0.60;;
24151;SDS011;12311;50.866;4.332;2023-06-04T11:06:23;0.57;;;0.43;;
24151;SDS011;12311;50.866;4.332;2023-06-04T11:09:03;0.55;;;0.45;;
24151;SDS011;12311;50.866;4.332;2023-06-04T11:11:33;1.65;;;0.50;;
24151;SDS011;12311;50.866;4.332;2023-06-04T11:14:11;0.75;;;0.60;;
24151;SDS011;12311;50.866;4.332;2023-06-04T11:16:42;0.77;;;0.50;;
24151;SDS011;12311;50.866;4.332;2023-06-04T11:19:08;2.28;;;0.77;;
24151;SDS011;12311;50.866;4.332;2023-06-04T11:21:34;0.68;;;0.40;;
24151;SDS011;12311;50.866;4.332;2023-06-04T11:24:03;0.85;;;0.50;;
24151;SDS011;12311;50.866;4.332;2023-06-04T11:26:33;0.65;;;0.43;;
24151;SDS011;12311;50.866;4.332;2023-06-04T11:29:00;0.80;;;0.63;;
24151;SDS011;12311;50.866;4.332;2023-06-04T11:31:27;2.90;;;0.60;;
24151;SDS011;12311;50.866;4.332;2023-06-04T11:33:53;1.50;;;0.40;;
24151;SDS011;12311;50.866;4.332;2023-06-04T11:36:26;1.58;;;0.43;;
24151;SDS011;12311;50.866;4.332;2023-06-04T11:38:59;2.33;;;0.80;;
24151;SDS011;12311;50.866;4.332;2023-06-04T11:41:27;0.47;;;0.45;;
24151;SDS011;12311;50.866;4.332;2023-06-04T11:43:57;0.55;;;0.40;;
24151;SDS011;12311;50.866;4.332;2023-06-04T11:46:28;1.30;;;0.50;;
24151;SDS011;12311;50.866;4.332;2023-06-04T11:48:53;2.05;;;0.50;;
24151;SDS011;12311;50.866;4.332;2023-06-04T11:51:22;1.75;;;0.40;;
24151;SDS011;12311;50.866;4.332;2023-06-04T11:53:48;2.33;;;0.50;;
24151;SDS011;12311;50.866;4.332;2023-06-04T11:56:14;0.55;;;0.40;;
24151;SDS011;12311;50.866;4.332;2023-06-04T11:58:40;0.65;;;0.40;;
24151;SDS011;12311;50.866;4.332;2023-06-04T12:01:07;4.22;;;0.70;;
24151;SDS011;12311;50.866;4.332;2023-06-04T12:03:37;1.02;;;0.60;;
24151;SDS011;12311;50.866;4.332;2023-06-04T12:06:11;1.35;;;0.40;;
24151;SDS011;12311;50.866;4.332;2023-06-04T12:08:54;1.85;;;0.50;;
24151;SDS011;12311;50.866;4.332;2023-06-04T12:11:33;1.08;;;0.60;;
24151;SDS011;12311;50.866;4.332;2023-06-04T12:14:03;1.65;;;0.63;;
24151;SDS011;12311;50.866;4.332;2023-06-04T12:16:30;2.83;;;0.60;;
24151;SDS011;12311;50.866;4.332;2023-06-04T12:19:10;0.90;;;0.47;;
24151;SDS011;12311;50.866;4.332;2023-06-04T12:21:37;0.70;;;0.40;;
24151;SDS011;12311;50.866;4.332;2023-06-04T12:24:10;1.02;;;0.60;;
24151;SDS011;12311;50.866;4.332;2023-06-04T12:26:41;0.60;;;0.55;;
24151;SDS011;12311;50.866;4.332;2023-06-04T12:29:12;2.70;;;0.50;;
24151;SDS011;12311;50.866;4.332;2023-06-04T12:31:39;0.68;;;0.50;;
24151;SDS011;12311;50.866;4.332;2023-06-04T12:34:07;1.35;;;0.50;;
24151;SDS011;12311;50.866;4.332;2023-06-04T12:36:33;0.60;;;0.32;;
24151;SDS011;12311;50.866;4.332;2023-06-04T12:39:00;1.20;;;0.75;;
24151;SDS011;12311;50.866;4.332;2023-06-04T12:41:27;0.75;;;0.40;;
24151;SDS011;12311;50.866;4.332;2023-06-04T12:43:53;1.58;;;0.50;;
24151;SDS011;12311;50.866;4.332;2023-06-04T12:46:19;1.52;;;0.43;;
24151;SDS011;12311;50.866;4.332;2023-06-04T12:48:47;0.80;;;0.40;;
24151;SDS011;12311;50.866;4.332;2023-06-04T12:51:13;0.50;;;0.30;;
24151;SDS011;12311;50.866;4.332;2023-06-04T12:53:39;0.70;;;0.60;;
24151;SDS011;12311;50.866;4.332;2023-06-04T12:56:05;1.52;;;0.70;;
24151;SDS011;12311;50.866;4.332;2023-06-04T12:58:31;2.45;;;0.95;;
24151;SDS011;12311;50.866;4.332;2023-06-04T13:00:57;1.33;;;0.50;;
24151;SDS011;12311;50.866;4.332;2023-06-04T13:03:23;2.63;;;0.50;;
24151;SDS011;12311;50.866;4.332;2023-06-04T13:05:48;1.33;;;0.60;;
24151;SDS011;12311;50.866;4.332;2023-06-04T13:08:18;1.90;;;0.93;;
24151;SDS011;12311;50.866;4.332;2023-06-04T13:10:45;2.47;;;0.55;;
24151;SDS011;12311;50.866;4.332;2023-06-04T13:13:11;2.72;;;0.60;;
24151;SDS011;12311;50.866;4.332;2023-06-04T13:15:37;1.05;;;0.43;;
24151;SDS011;12311;50.866;4.332;2023-06-04T13:18:03;0.52;;;0.45;;
24151;SDS011;12311;50.866;4.332;2023-06-04T13:20:28;0.88;;;0.50;;
24151;SDS011;12311;50.866;4.332;2023-06-04T13:22:54;0.52;;;0.38;;
24151;SDS011;12311;50.866;4.332;2023-06-04T13:25:20;0.80;;;0.50;;
24151;SDS011;12311;50.866;4.332;2023-06-04T13:27:48;0.57;;;0.40;;
24151;SDS011;12311;50.866;4.332;2023-06-04T13:30:14;0.57;;;0.45;;
24151;SDS011;12311;50.866;4.332;2023-06-04T13:32:40;0.50;;;0.40;;
24151;SDS011;12311;50.866;4.332;2023-06-04T13:35:05;0.80;;;0.57;;
24151;SDS011;12311;50.866;4.332;2023-06-04T13:37:31;0.77;;;0.40;;
24151;SDS011;12311;50.866;4.332;2023-06-04T13:39:57;0.65;;;0.65;;
24151;SDS011;12311;50.866;4.332;2023-06-04T13:42:23;0.60;;;0.60;;
24151;SDS011;12311;50.866;4.332;2023-06-04T13:44:49;1.02;;;0.60;;
24151;SDS011;12311;50.866;4.332;2023-06-04T13:47:14;1.83;;;0.68;;
24151;SDS011;12311;50.866;4.332;2023-06-04T13:49:41;0.95;;;0.43;;
24151;SDS011;12311;50.866;4.332;2023-06-04T13:52:07;0.52;;;0.45;;
24151;SDS011;12311;50.866;4.332;2023-06-04T13:54:33;0.68;;;0.50;;
24151;SDS011;12311;50.866;4.332;2023-06-04T13:57:01;0.50;;;0.40;;
24151;SDS011;12311;50.866;4.332;2023-06-04T13:59:28;0.47;;;0.38;;
24151;SDS011;12311;50.866;4.332;2023-06-04T14:01:56;0.40;;;0.40;;
24151;SDS011;12311;50.866;4.332;2023-06-04T14:04:21;2.42;;;0.85;;
24151;SDS011;12311;50.866;4.332;2023-06-04T14:06:47;1.45;;;0.70;;
24151;SDS011;12311;50.866;4.332;2023-06-04T14:09:13;1.45;;;0.40;;
24151;SDS011;12311;50.866;4.332;2023-06-04T14:11:39;3.22;;;1.10;;
24151;SDS011;12311;50.866;4.332;2023-06-04T14:14:05;3.25;;;1.02;;
24151;SDS011;12311;50.866;4.332;2023-06-04T14:16:31;1.35;;;0.68;;
24151;SDS011;12311;50.866;4.332;2023-06-04T14:18:57;2.67;;;0.63;;
24151;SDS011;12311;50.866;4.332;2023-06-04T14:21:23;0.90;;;0.45;;
24151;SDS011;12311;50.866;4.332;2023-06-04T14:23:48;2.50;;;0.73;;
24151;SDS011;12311;50.866;4.332;2023-06-04T14:26:15;1.65;;;0.80;;
24151;SDS011;12311;50.866;4.332;2023-06-04T14:28:42;2.33;;;0.70;;
24151;SDS011;12311;50.866;4.332;2023-06-04T14:31:08;0.80;;;0.50;;
24151;SDS011;12311;50.866;4.332;2023-06-04T14:33:34;1.60;;;0.50;;
24151;SDS011;12311;50.866;4.332;2023-06-04T14:36:02;0.95;;;0.63;;
24151;SDS011;12311;50.866;4.332;2023-06-04T14:38:30;0.63;;;0.55;;
24151;SDS011;12311;50.866;4.332;2023-06-04T14:40:56;1.17;;;0.50;;
24151;SDS011;12311;50.866;4.332;2023-06-04T14:43:22;0.98;;;0.70;;
24151;SDS011;12311;50.866;4.332;2023-06-04T14:45:48;0.73;;;0.50;;
24151;SDS011;12311;50.866;4.332;2023-06-04T14:48:14;1.00;;;0.60;;
24151;SDS011;12311;50.866;4.332;2023-06-04T14:50:39;0.70;;;0.52;;
24151;SDS011;12311;50.866;4.332;2023-06-04T14:53:05;0.65;;;0.45;;
24151;SDS011;12311;50.866;4.332;2023-06-04T14:55:32;0.45;;;0.40;;
24151;SDS011;12311;50.866;4.332;2023-06-04T14:57:59;0.52;;;0.45;;
24151;SDS011;12311;50.866;4.332;2023-06-04T15:00:25;0.75;;;0.45;;